CheckWX is a tool to help pilots better visualize weather data.  It is not intended as a substitute for an official pre-flight weather briefing.

15:54:03 UTC

KAFK METAR
Nebraska City Municipal Airport
Nebraska City, Nebraska, USA
Current

19 mins ago

KAFK 231535Z AUTO 05008KT 10SM SCT075 16/08 A3014 RMK AO2 T01610084
Observed
May-23 @ 15:35 UTC
Wind
  • 050° at 8 KTS
Visibility
10 SM
Flight Rules
VFR
Cloud Levels
  • Scattered at 7,500' AGL
Temperature
16°C / 61°F
Dewpoint
C / 46°F
Humidity
59%
Altimeter
30.14" Hg
Pressure
1020.62 hPa
Previous

39 mins ago

KAFK 231515Z AUTO 02005KT 10SM BKN075 16/08 A3014 RMK AO2 T01570082
Observed
May-23 @ 15:15 UTC
Wind
  • 020° at 5 KTS
Visibility
10 SM
Flight Rules
VFR
Cloud Levels
  • Broken at 7,500' AGL
Temperature
16°C / 61°F
Dewpoint
C / 46°F
Humidity
59%
Altimeter
30.14" Hg
Pressure
1020.62 hPa
Previous

59 mins ago

KAFK 231455Z AUTO 35006KT 10SM OVC075 15/08 A3014 RMK AO2 T01510083
Observed
May-23 @ 14:55 UTC
Wind
  • 350° at 6 KTS
Visibility
10 SM
Flight Rules
VFR
Cloud Levels
  • Overcast at 7,500' AGL
Temperature
15°C / 59°F
Dewpoint
C / 46°F
Humidity
63%
Altimeter
30.14" Hg
Pressure
1020.62 hPa